sensor_id;sensor_type;location;lat;lon;timestamp;pressure;altitude;pressure_sealevel;temperature;humidity
65276;BME280;51875;49.994;14.052;2023-03-08T00:00:14;96606.03;;;3.53;90.90
65276;BME280;51875;49.994;14.052;2023-03-08T00:01:50;96617.56;;;3.73;90.41
65276;BME280;51875;49.994;14.052;2023-03-08T00:03:06;96612.28;;;3.76;90.38
65276;BME280;51875;49.994;14.052;2023-03-08T00:04:21;96618.94;;;3.55;91.41
65276;BME280;51875;49.994;14.052;2023-03-08T00:05:37;96612.22;;;3.49;95.30
65276;BME280;51875;49.994;14.052;2023-03-08T00:06:53;96607.59;;;3.59;95.34
65276;BME280;51875;49.994;14.052;2023-03-08T00:08:09;96613.56;;;3.61;95.72
65276;BME280;51875;49.994;14.052;2023-03-08T00:09:25;96610.50;;;3.78;93.80
65276;BME280;51875;49.994;14.052;2023-03-08T00:10:40;96616.91;;;3.66;94.91
65276;BME280;51875;49.994;14.052;2023-03-08T00:11:56;96614.00;;;3.47;97.58
65276;BME280;51875;49.994;14.052;2023-03-08T00:13:12;96619.97;;;3.49;98.44
65276;BME280;51875;49.994;14.052;2023-03-08T00:14:27;96624.06;;;3.56;97.28
65276;BME280;51875;49.994;14.052;2023-03-08T00:15:43;96622.97;;;3.65;97.34
65276;BME280;51875;49.994;14.052;2023-03-08T00:16:58;96625.38;;;3.41;99.19
65276;BME280;51875;49.994;14.052;2023-03-08T00:18:14;96618.28;;;3.48;99.62
65276;BME280;51875;49.994;14.052;2023-03-08T00:19:29;96619.22;;;3.45;100.00
65276;BME280;51875;49.994;14.052;2023-03-08T00:20:45;96626.38;;;3.65;98.67
65276;BME280;51875;49.994;14.052;2023-03-08T00:22:01;96624.69;;;3.64;99.07
65276;BME280;51875;49.994;14.052;2023-03-08T00:23:16;96627.31;;;3.63;97.98
65276;BME280;51875;49.994;14.052;2023-03-08T00:24:32;96626.47;;;3.62;98.80
65276;BME280;51875;49.994;14.052;2023-03-08T00:25:52;96638.06;;;3.50;100.00
65276;BME280;51875;49.994;14.052;2023-03-08T00:27:07;96638.41;;;3.68;98.82
65276;BME280;51875;49.994;14.052;2023-03-08T00:28:23;96641.38;;;3.54;99.03
65276;BME280;51875;49.994;14.052;2023-03-08T00:29:39;96647.16;;;3.64;99.94
65276;BME280;51875;49.994;14.052;2023-03-08T00:31:08;96645.41;;;3.64;100.00
65276;BME280;51875;49.994;14.052;2023-03-08T00:32:24;96644.34;;;3.72;99.78
65276;BME280;51875;49.994;14.052;2023-03-08T00:33:41;96650.69;;;3.60;100.00
65276;BME280;51875;49.994;14.052;2023-03-08T00:34:56;96650.84;;;3.55;100.00
65276;BME280;51875;49.994;14.052;2023-03-08T00:36:15;96646.16;;;3.68;100.00
65276;BME280;51875;49.994;14.052;2023-03-08T00:37:31;96641.44;;;3.52;100.00
65276;BME280;51875;49.994;14.052;2023-03-08T00:38:47;96652.38;;;3.62;100.00
65276;BME280;51875;49.994;14.052;2023-03-08T00:40:05;96652.13;;;3.70;100.00
65276;BME280;51875;49.994;14.052;2023-03-08T00:41:21;96649.59;;;3.68;100.00
65276;BME280;51875;49.994;14.052;2023-03-08T00:42:37;96647.94;;;3.66;100.00
65276;BME280;51875;49.994;14.052;2023-03-08T00:43:52;96646.50;;;3.56;100.00
65276;BME280;51875;49.994;14.052;2023-03-08T00:45:08;96654.09;;;3.62;100.00
65276;BME280;51875;49.994;14.052;2023-03-08T00:46:25;96649.75;;;3.64;100.00
65276;BME280;51875;49.994;14.052;2023-03-08T00:47:40;96651.50;;;3.92;100.00
65276;BME280;51875;49.994;14.052;2023-03-08T00:48:56;96645.91;;;3.77;100.00
65276;BME280;51875;49.994;14.052;2023-03-08T00:50:13;96654.41;;;3.81;100.00
65276;BME280;51875;49.994;14.052;2023-03-08T00:51:28;96651.81;;;3.81;100.00
65276;BME280;51875;49.994;14.052;2023-03-08T00:52:44;96652.38;;;3.62;100.00
65276;BME280;51875;49.994;14.052;2023-03-08T00:53:59;96653.66;;;3.77;100.00
65276;BME280;51875;49.994;14.052;2023-03-08T00:55:15;96651.66;;;3.87;100.00
65276;BME280;51875;49.994;14.052;2023-03-08T00:56:31;96653.44;;;3.85;100.00
65276;BME280;51875;49.994;14.052;2023-03-08T00:57:46;96648.53;;;4.04;100.00
65276;BME280;51875;49.994;14.052;2023-03-08T00:59:02;96654.16;;;3.89;100.00
65276;BME280;51875;49.994;14.052;2023-03-08T01:00:18;96655.13;;;3.86;100.00
65276;BME280;51875;49.994;14.052;2023-03-08T01:01:33;96649.63;;;3.97;100.00
65276;BME280;51875;49.994;14.052;2023-03-08T01:02:49;96649.72;;;3.94;100.00
65276;BME280;51875;49.994;14.052;2023-03-08T01:04:05;96656.59;;;3.95;100.00
65276;BME280;51875;49.994;14.052;2023-03-08T01:05:21;96658.31;;;3.94;100.00
65276;BME280;51875;49.994;14.052;2023-03-08T01:06:37;96651.44;;;3.93;100.00
65276;BME280;51875;49.994;14.052;2023-03-08T01:07:53;96648.63;;;4.01;100.00
65276;BME280;51875;49.994;14.052;2023-03-08T01:09:10;96649.75;;;3.92;100.00
65276;BME280;51875;49.994;14.052;2023-03-08T01:10:26;96666.97;;;3.93;100.00
65276;BME280;51875;49.994;14.052;2023-03-08T01:11:41;96660.53;;;3.78;100.00
65276;BME280;51875;49.994;14.052;2023-03-08T01:12:58;96673.28;;;3.85;100.00
65276;BME280;51875;49.994;14.052;2023-03-08T01:14:14;96658.41;;;3.91;100.00
65276;BME280;51875;49.994;14.052;2023-03-08T01:15:29;96667.84;;;3.94;100.00
65276;BME280;51875;49.994;14.052;2023-03-08T01:16:45;96665.25;;;3.94;100.00
65276;BME280;51875;49.994;14.052;2023-03-08T01:18:01;96663.88;;;4.10;100.00
65276;BME280;51875;49.994;14.052;2023-03-08T01:19:16;96664.34;;;3.95;100.00
65276;BME280;51875;49.994;14.052;2023-03-08T01:20:32;96664.47;;;3.92;100.00
65276;BME280;51875;49.994;14.052;2023-03-08T01:21:47;96652.84;;;4.05;100.00
65276;BME280;51875;49.994;14.052;2023-03-08T01:23:03;96651.97;;;4.05;100.00
65276;BME280;51875;49.994;14.052;2023-03-08T01:24:19;96654.13;;;3.90;100.00
65276;BME280;51875;49.994;14.052;2023-03-08T01:25:35;96657.28;;;4.00;100.00
65276;BME280;51875;49.994;14.052;2023-03-08T01:26:51;96663.31;;;4.01;100.00
65276;BME280;51875;49.994;14.052;2023-03-08T01:28:10;96669.19;;;4.06;100.00
65276;BME280;51875;49.994;14.052;2023-03-08T01:29:26;96666.50;;;4.09;100.00
65276;BME280;51875;49.994;14.052;2023-03-08T01:30:42;96659.59;;;4.09;100.00
65276;BME280;51875;49.994;14.052;2023-03-08T01:31:57;96665.25;;;4.22;100.00
65276;BME280;51875;49.994;14.052;2023-03-08T01:33:13;96663.84;;;4.12;100.00
65276;BME280;51875;49.994;14.052;2023-03-08T01:34:29;96653.44;;;4.14;100.00
65276;BME280;51875;49.994;14.052;2023-03-08T01:35:44;96654.88;;;4.22;100.00
65276;BME280;51875;49.994;14.052;2023-03-08T01:37:00;96655.13;;;4.15;100.00
65276;BME280;51875;49.994;14.052;2023-03-08T01:38:16;96655.75;;;4.23;100.00
65276;BME280;51875;49.994;14.052;2023-03-08T01:39:31;96663.91;;;4.37;100.00
65276;BME280;51875;49.994;14.052;2023-03-08T01:40:47;96655.84;;;4.20;100.00
65276;BME280;51875;49.994;14.052;2023-03-08T01:42:04;96651.38;;;4.23;100.00
65276;BME280;51875;49.994;14.052;2023-03-08T01:43:28;96655.63;;;4.26;100.00
65276;BME280;51875;49.994;14.052;2023-03-08T01:45:01;96653.94;;;4.25;100.00
65276;BME280;51875;49.994;14.052;2023-03-08T01:46:29;96654.97;;;4.19;100.00
65276;BME280;51875;49.994;14.052;2023-03-08T01:47:44;96661.06;;;4.18;100.00
65276;BME280;51875;49.994;14.052;2023-03-08T01:49:21;96652.34;;;4.21;100.00
65276;BME280;51875;49.994;14.052;2023-03-08T01:50:40;96649.19;;;4.11;100.00
65276;BME280;51875;49.994;14.052;2023-03-08T01:52:04;96651.25;;;4.28;100.00
65276;BME280;51875;49.994;14.052;2023-03-08T01:53:21;96660.25;;;4.16;100.00
65276;BME280;51875;49.994;14.052;2023-03-08T01:54:44;96656.91;;;4.13;100.00
65276;BME280;51875;49.994;14.052;2023-03-08T01:56:04;96647.66;;;4.32;100.00
65276;BME280;51875;49.994;14.052;2023-03-08T01:57:36;96659.22;;;4.22;100.00
65276;BME280;51875;49.994;14.052;2023-03-08T01:58:53;96650.50;;;4.24;100.00
65276;BME280;51875;49.994;14.052;2023-03-08T02:00:15;96648.66;;;4.28;100.00
65276;BME280;51875;49.994;14.052;2023-03-08T02:01:32;96651.38;;;4.23;100.00
65276;BME280;51875;49.994;14.052;2023-03-08T02:04:08;96646.16;;;4.25;100.00
65276;BME280;51875;49.994;14.052;2023-03-08T02:05:24;96649.38;;;4.33;100.00
65276;BME280;51875;49.994;14.052;2023-03-08T02:06:41;96648.31;;;4.12;100.00
65276;BME280;51875;49.994;14.052;2023-03-08T02:07:57;96642.03;;;4.19;100.00
65276;BME280;51875;49.994;14.052;2023-03-08T02:09:13;96647.06;;;4.24;100.00
65276;BME280;51875;49.994;14.052;2023-03-08T02:10:28;96655.88;;;4.18;100.00
65276;BME280;51875;49.994;14.052;2023-03-08T02:11:45;96649.69;;;4.22;100.00
65276;BME280;51875;49.994;14.052;2023-03-08T02:13:03;96655.66;;;4.24;100.00
65276;BME280;51875;49.994;14.052;2023-03-08T02:14:20;96660.59;;;4.32;100.00
65276;BME280;51875;49.994;14.052;2023-03-08T02:15:36;96643.38;;;4.31;100.00
65276;BME280;51875;49.994;14.052;2023-03-08T02:16:52;96649.56;;;4.27;100.00
65276;BME280;51875;49.994;14.052;2023-03-08T02:18:08;96659.13;;;4.25;100.00
65276;BME280;51875;49.994;14.052;2023-03-08T02:19:44;96659.44;;;4.43;100.00
65276;BME280;51875;49.994;14.052;2023-03-08T02:21:00;96654.97;;;4.48;100.00
65276;BME280;51875;49.994;14.052;2023-03-08T02:22:16;96645.69;;;4.41;100.00
65276;BME280;51875;49.994;14.052;2023-03-08T02:23:32;96645.69;;;4.41;100.00
65276;BME280;51875;49.994;14.052;2023-03-08T02:24:47;96647.06;;;4.24;100.00
65276;BME280;51875;49.994;14.052;2023-03-08T02:26:04;96637.13;;;4.38;100.00
65276;BME280;51875;49.994;14.052;2023-03-08T02:27:23;96647.22;;;4.19;100.00
65276;BME280;51875;49.994;14.052;2023-03-08T02:28:40;96641.56;;;4.06;100.00
65276;BME280;51875;49.994;14.052;2023-03-08T02:29:56;96640.13;;;4.24;100.00
65276;BME280;51875;49.994;14.052;2023-03-08T02:31:12;96649.66;;;4.24;100.00
65276;BME280;51875;49.994;14.052;2023-03-08T02:32:28;96654.34;;;4.11;100.00
65276;BME280;51875;49.994;14.052;2023-03-08T02:33:44;96649.81;;;4.19;100.00
65276;BME280;51875;49.994;14.052;2023-03-08T02:34:59;96649.84;;;4.18;100.00
65276;BME280;51875;49.994;14.052;2023-03-08T02:36:16;96653.25;;;4.20;100.00
65276;BME280;51875;49.994;14.052;2023-03-08T02:37:32;96660.38;;;4.13;100.00
65276;BME280;51875;49.994;14.052;2023-03-08T02:38:48;96654.28;;;4.14;100.00
65276;BME280;51875;49.994;14.052;2023-03-08T02:40:04;96653.09;;;4.24;100.00
65276;BME280;51875;49.994;14.052;2023-03-08T02:41:20;96647.22;;;4.19;100.00
65276;BME280;51875;49.994;14.052;2023-03-08T02:42:36;96653.16;;;4.23;98.73
65276;BME280;51875;49.994;14.052;2023-03-08T02:43:52;96648.06;;;4.20;98.48
65276;BME280;51875;49.994;14.052;2023-03-08T02:45:08;96636.44;;;4.33;99.39
65276;BME280;51875;49.994;14.052;2023-03-08T02:46:23;96637.59;;;4.23;99.46
65276;BME280;51875;49.994;14.052;2023-03-08T02:47:39;96641.66;;;4.32;98.17
65276;BME280;51875;49.994;14.052;2023-03-08T02:48:55;96647.50;;;4.37;96.81
65276;BME280;51875;49.994;14.052;2023-03-08T02:50:11;96639.16;;;4.29;97.19
65276;BME280;51875;49.994;14.052;2023-03-08T02:51:27;96650.56;;;4.23;98.68
65276;BME280;51875;49.994;14.052;2023-03-08T02:52:42;96656.94;;;4.40;97.45
65276;BME280;51875;49.994;14.052;2023-03-08T02:53:58;96645.19;;;4.56;95.43
65276;BME280;51875;49.994;14.052;2023-03-08T02:55:14;96647.25;;;4.45;95.14
65276;BME280;51875;49.994;14.052;2023-03-08T02:56:29;96652.00;;;4.32;97.36
65276;BME280;51875;49.994;14.052;2023-03-08T02:57:45;96645.44;;;4.48;95.78
65276;BME280;51875;49.994;14.052;2023-03-08T02:59:02;96649.59;;;4.52;95.21
65276;BME280;51875;49.994;14.052;2023-03-08T03:00:18;96642.72;;;4.51;95.85
65276;BME280;51875;49.994;14.052;2023-03-08T03:01:34;96648.88;;;4.49;94.19
65276;BME280;51875;49.994;14.052;2023-03-08T03:02:50;96647.25;;;4.45;95.74
65276;BME280;51875;49.994;14.052;2023-03-08T03:04:05;96649.13;;;4.41;95.21
65276;BME280;51875;49.994;14.052;2023-03-08T03:05:21;96646.88;;;4.57;94.92
65276;BME280;51875;49.994;14.052;2023-03-08T03:06:37;96646.03;;;4.57;94.35
65276;BME280;51875;49.994;14.052;2023-03-08T03:07:52;96655.94;;;4.44;94.57
65276;BME280;51875;49.994;14.052;2023-03-08T03:09:10;96641.00;;;4.52;95.06
65276;BME280;51875;49.994;14.052;2023-03-08T03:10:26;96647.22;;;4.46;94.86
65276;BME280;51875;49.994;14.052;2023-03-08T03:11:41;96650.47;;;4.53;94.55
65276;BME280;51875;49.994;14.052;2023-03-08T03:12:57;96654.47;;;4.63;94.69
65276;BME280;51875;49.994;14.052;2023-03-08T03:14:13;96652.91;;;4.58;94.73
65276;BME280;51875;49.994;14.052;2023-03-08T03:15:29;96653.34;;;4.44;96.13
65276;BME280;51875;49.994;14.052;2023-03-08T03:16:45;96657.19;;;4.59;94.39
65276;BME280;51875;49.994;14.052;2023-03-08T03:18:00;96658.63;;;4.68;93.78
65276;BME280;51875;49.994;14.052;2023-03-08T03:19:16;96657.31;;;4.56;93.93
65276;BME280;51875;49.994;14.052;2023-03-08T03:20:32;96653.69;;;4.60;93.81
65276;BME280;51875;49.994;14.052;2023-03-08T03:21:48;96655.13;;;4.69;92.63
65276;BME280;51875;49.994;14.052;2023-03-08T03:23:04;96665.28;;;4.75;92.96
65276;BME280;51875;49.994;14.052;2023-03-08T03:24:20;96660.28;;;4.70;93.54
65276;BME280;51875;49.994;14.052;2023-03-08T03:25:36;96660.28;;;4.70;93.13
65276;BME280;51875;49.994;14.052;2023-03-08T03:26:52;96654.50;;;4.62;93.34
65276;BME280;51875;49.994;14.052;2023-03-08T03:28:08;96661.13;;;4.71;93.61
65276;BME280;51875;49.994;14.052;2023-03-08T03:29:23;96658.53;;;4.71;92.36
65276;BME280;51875;49.994;14.052;2023-03-08T03:30:39;96662.91;;;4.69;92.02
65276;BME280;51875;49.994;14.052;2023-03-08T03:31:55;96663.22;;;4.59;93.56
65276;BME280;51875;49.994;14.052;2023-03-08T03:33:11;96670.16;;;4.59;93.56
65276;BME280;51875;49.994;14.052;2023-03-08T03:34:26;96666.69;;;4.58;93.56
65276;BME280;51875;49.994;14.052;2023-03-08T03:35:42;96671.16;;;4.55;93.86
65276;BME280;51875;49.994;14.052;2023-03-08T03:36:57;96672.63;;;4.62;93.24
65276;BME280;51875;49.994;14.052;2023-03-08T03:38:13;96668.72;;;4.77;91.67
65276;BME280;51875;49.994;14.052;2023-03-08T03:39:28;96666.38;;;4.69;92.43
65276;BME280;51875;49.994;14.052;2023-03-08T03:40:49;96669.94;;;4.65;92.67
65276;BME280;51875;49.994;14.052;2023-03-08T03:42:07;96677.47;;;4.73;92.50
65276;BME280;51875;49.994;14.052;2023-03-08T03:43:23;96685.19;;;4.74;92.22
65276;BME280;51875;49.994;14.052;2023-03-08T03:44:39;96681.41;;;4.58;92.44
65276;BME280;51875;49.994;14.052;2023-03-08T03:46:00;96681.06;;;4.69;92.05
65276;BME280;51875;49.994;14.052;2023-03-08T03:47:15;96684.34;;;4.74;92.31
65276;BME280;51875;49.994;14.052;2023-03-08T03:48:33;96695.16;;;4.87;90.56
65276;BME280;51875;49.994;14.052;2023-03-08T03:49:49;96685.75;;;4.84;90.91
65276;BME280;51875;49.994;14.052;2023-03-08T03:51:08;96685.06;;;4.79;91.34
65276;BME280;51875;49.994;14.052;2023-03-08T03:52:23;96690.53;;;4.70;91.92
65276;BME280;51875;49.994;14.052;2023-03-08T03:53:39;96687.09;;;4.69;92.05
65276;BME280;51875;49.994;14.052;2023-03-08T03:54:55;96683.16;;;4.84;89.88
65276;BME280;51875;49.994;14.052;2023-03-08T03:57:30;96672.09;;;4.79;90.66
65276;BME280;51875;49.994;14.052;2023-03-08T03:58:47;96673.88;;;4.77;91.55
65276;BME280;51875;49.994;14.052;2023-03-08T04:00:03;96675.66;;;4.75;90.42
65276;BME280;51875;49.994;14.052;2023-03-08T04:01:22;96675.38;;;4.84;89.32
65276;BME280;51875;49.994;14.052;2023-03-08T04:02:41;96669.34;;;4.84;89.01
65276;BME280;51875;49.994;14.052;2023-03-08T04:03:57;96669.81;;;4.95;88.34
65276;BME280;51875;49.994;14.052;2023-03-08T04:05:13;96674.53;;;4.84;88.83
65276;BME280;51875;49.994;14.052;2023-03-08T04:06:30;96668.38;;;4.86;89.35
65276;BME280;51875;49.994;14.052;2023-03-08T04:07:46;96671.19;;;5.05;87.17
65276;BME280;51875;49.994;14.052;2023-03-08T04:09:07;96686.28;;;4.94;87.60
65276;BME280;51875;49.994;14.052;2023-03-08T04:10:27;96691.53;;;4.92;89.89
65276;BME280;51875;49.994;14.052;2023-03-08T04:11:42;96683.22;;;4.83;89.96
65276;BME280;51875;49.994;14.052;2023-03-08T04:12:58;96689.88;;;4.63;91.47
65276;BME280;51875;49.994;14.052;2023-03-08T04:14:14;96687.25;;;4.91;90.32
65276;BME280;51875;49.994;14.052;2023-03-08T04:15:29;96686.94;;;4.74;90.90
65276;BME280;51875;49.994;14.052;2023-03-08T04:16:45;96690.56;;;4.95;88.40
65276;BME280;51875;49.994;14.052;2023-03-08T04:18:01;96696.56;;;4.97;88.46
65276;BME280;51875;49.994;14.052;2023-03-08T04:19:16;96698.50;;;4.90;89.16
65276;BME280;51875;49.994;14.052;2023-03-08T04:20:32;96704.50;;;4.92;89.78
65276;BME280;51875;49.994;14.052;2023-03-08T04:21:47;96702.19;;;4.83;90.73
65276;BME280;51875;49.994;14.052;2023-03-08T04:23:03;96699.91;;;4.74;90.97
65276;BME280;51875;49.994;14.052;2023-03-08T04:24:19;96700.06;;;4.69;91.87
65276;BME280;51875;49.994;14.052;2023-03-08T04:25:34;96694.00;;;4.95;89.03
65276;BME280;51875;49.994;14.052;2023-03-08T04:26:50;96700.47;;;4.84;89.91
65276;BME280;51875;49.994;14.052;2023-03-08T04:28:05;96703.09;;;4.82;89.59
65276;BME280;51875;49.994;14.052;2023-03-08T04:29:21;96692.22;;;4.98;88.62
65276;BME280;51875;49.994;14.052;2023-03-08T04:30:37;96694.31;;;4.59;89.93
65276;BME280;51875;49.994;14.052;2023-03-08T04:31:52;96694.66;;;4.75;89.86
65276;BME280;51875;49.994;14.052;2023-03-08T04:33:12;96696.63;;;4.69;90.19
65276;BME280;51875;49.994;14.052;2023-03-08T04:34:28;96691.94;;;4.80;89.49
65276;BME280;51875;49.994;14.052;2023-03-08T04:35:43;96693.41;;;4.60;89.04
65276;BME280;51875;49.994;14.052;2023-03-08T04:36:59;96689.22;;;4.83;88.26
65276;BME280;51875;49.994;14.052;2023-03-08T04:38:15;96691.28;;;4.73;88.63
65276;BME280;51875;49.994;14.052;2023-03-08T04:39:31;96693.66;;;4.79;90.40
65276;BME280;51875;49.994;14.052;2023-03-08T04:40:49;96696.31;;;4.78;89.78
65276;BME280;51875;49.994;14.052;2023-03-08T04:42:19;96694.31;;;4.86;89.68
65276;BME280;51875;49.994;14.052;2023-03-08T04:43:35;96703.88;;;4.84;89.03
65276;BME280;51875;49.994;14.052;2023-03-08T04:44:51;96694.94;;;4.68;91.38
65276;BME280;51875;49.994;14.052;2023-03-08T04:46:07;96699.59;;;4.83;90.14
65276;BME280;51875;49.994;14.052;2023-03-08T04:47:22;96698.00;;;4.52;91.79
65276;BME280;51875;49.994;14.052;2023-03-08T04:48:38;96698.53;;;4.63;91.26
65276;BME280;51875;49.994;14.052;2023-03-08T04:49:54;96691.28;;;4.46;90.48
65276;BME280;51875;49.994;14.052;2023-03-08T04:51:11;96693.97;;;4.70;90.50
65276;BME280;51875;49.994;14.052;2023-03-08T04:52:27;96688.88;;;4.67;90.47
65276;BME280;51875;49.994;14.052;2023-03-08T04:53:43;96690.38;;;4.74;90.50
65276;BME280;51875;49.994;14.052;2023-03-08T04:54:59;96699.00;;;4.75;89.96
65276;BME280;51875;49.994;14.052;2023-03-08T04:56:16;96698.19;;;4.73;89.54
65276;BME280;51875;49.994;14.052;2023-03-08T04:57:32;96694.41;;;4.83;89.44
65276;BME280;51875;49.994;14.052;2023-03-08T04:58:49;96689.13;;;4.86;88.97
65276;BME280;51875;49.994;14.052;2023-03-08T05:00:05;96693.88;;;4.73;90.19
65276;BME280;51875;49.994;14.052;2023-03-08T05:01:21;96689.13;;;4.86;88.78
65276;BME280;51875;49.994;14.052;2023-03-08T05:02:37;96691.88;;;4.81;88.58
65276;BME280;51875;49.994;14.052;2023-03-08T05:03:53;96689.44;;;4.77;89.64
65276;BME280;51875;49.994;14.052;2023-03-08T05:05:09;96684.25;;;4.77;89.86
65276;BME280;51875;49.994;14.052;2023-03-08T05:06:25;96685.44;;;4.93;88.05
65276;BME280;51875;49.994;14.052;2023-03-08T05:07:41;96682.97;;;4.90;87.92
65276;BME280;51875;49.994;14.052;2023-03-08T05:08:56;96681.50;;;4.81;86.82
65276;BME280;51875;49.994;14.052;2023-03-08T05:10:12;96683.63;;;4.70;88.14
65276;BME280;51875;49.994;14.052;2023-03-08T05:11:28;96693.34;;;4.63;89.11
65276;BME280;51875;49.994;14.052;2023-03-08T05:12:44;96680.00;;;4.74;87.76
65276;BME280;51875;49.994;14.052;2023-03-08T05:13:59;96681.34;;;4.59;90.95
65276;BME280;51875;49.994;14.052;2023-03-08T05:15:15;96677.00;;;4.61;90.32
65276;BME280;51875;49.994;14.052;2023-03-08T05:16:31;96681.66;;;4.77;89.60
65276;BME280;51875;49.994;14.052;2023-03-08T05:17:46;96680.91;;;4.73;89.28
65276;BME280;51875;49.994;14.052;2023-03-08T05:19:01;96688.84;;;4.69;89.30
65276;BME280;51875;49.994;14.052;2023-03-08T05:20:17;96685.06;;;4.79;88.66
65276;BME280;51875;49.994;14.052;2023-03-08T05:21:33;96686.94;;;4.74;88.53
65276;BME280;51875;49.994;14.052;2023-03-08T05:22:49;96691.97;;;4.78;88.13
65276;BME280;51875;49.994;14.052;2023-03-08T05:24:05;96682.31;;;4.84;87.13
65276;BME280;51875;49.994;14.052;2023-03-08T05:25:21;96690.13;;;4.82;88.83
65276;BME280;51875;49.994;14.052;2023-03-08T05:26:37;96691.69;;;4.88;88.72
65276;BME280;51875;49.994;14.052;2023-03-08T05:27:53;96691.00;;;4.83;87.84
65276;BME280;51875;49.994;14.052;2023-03-08T05:29:08;96690.50;;;4.71;89.26
65276;BME280;51875;49.994;14.052;2023-03-08T05:30:25;96695.16;;;4.87;88.52
65276;BME280;51875;49.994;14.052;2023-03-08T05:31:40;96689.44;;;4.77;87.84
65276;BME280;51875;49.994;14.052;2023-03-08T05:32:58;96694.22;;;4.89;87.46
65276;BME280;51875;49.994;14.052;2023-03-08T05:34:14;96702.00;;;4.89;87.01
65276;BME280;51875;49.994;14.052;2023-03-08T05:35:30;96697.88;;;4.84;88.70
65276;BME280;51875;49.994;14.052;2023-03-08T05:36:45;96709.03;;;4.86;86.14
65276;BME280;51875;49.994;14.052;2023-03-08T05:38:01;96697.56;;;4.66;88.59
65276;BME280;51875;49.994;14.052;2023-03-08T05:39:16;96695.94;;;4.63;88.96
65276;BME280;51875;49.994;14.052;2023-03-08T05:40:32;96701.28;;;4.57;88.85
65276;BME280;51875;49.994;14.052;2023-03-08T05:41:48;96708.09;;;4.61;88.29
65276;BME280;51875;49.994;14.052;2023-03-08T05:43:03;96714.97;;;4.62;88.24
65276;BME280;51875;49.994;14.052;2023-03-08T05:44:19;96725.25;;;4.65;87.86
65276;BME280;51875;49.994;14.052;2023-03-08T05:45:34;96724.47;;;4.62;88.84
65276;BME280;51875;49.994;14.052;2023-03-08T05:46:50;96727.31;;;4.54;88.52
65276;BME280;51875;49.994;14.052;2023-03-08T05:48:07;96725.22;;;4.38;90.00
65276;BME280;51875;49.994;14.052;2023-03-08T05:49:22;96726.44;;;4.53;90.31
65276;BME280;51875;49.994;14.052;2023-03-08T05:50:38;96723.66;;;4.61;87.77
65276;BME280;51875;49.994;14.052;2023-03-08T05:51:54;96724.06;;;4.76;88.59
65276;BME280;51875;49.994;14.052;2023-03-08T05:53:09;96721.34;;;4.79;87.76
65276;BME280;51875;49.994;14.052;2023-03-08T05:54:25;96723.94;;;4.79;87.72
65276;BME280;51875;49.994;14.052;2023-03-08T05:55:40;96726.03;;;4.68;89.15
65276;BME280;51875;49.994;14.052;2023-03-08T05:56:56;96728.84;;;4.61;88.52
65276;BME280;51875;49.994;14.052;2023-03-08T05:58:11;96729.66;;;4.62;89.36
65276;BME280;51875;49.994;14.052;2023-03-08T05:59:27;96727.84;;;4.65;88.44
65276;BME280;51875;49.994;14.052;2023-03-08T06:00:43;96730.53;;;4.62;88.06
65276;BME280;51875;49.994;14.052;2023-03-08T06:01:59;96738.78;;;4.74;88.68
65276;BME280;51875;49.994;14.052;2023-03-08T06:03:15;96723.66;;;4.61;88.42
65276;BME280;51875;49.994;14.052;2023-03-08T06:04:30;96720.94;;;4.64;88.02
65276;BME280;51875;49.994;14.052;2023-03-08T06:05:46;96720.72;;;4.44;88.93
65276;BME280;51875;49.994;14.052;2023-03-08T06:07:02;96717.75;;;4.56;88.59
65276;BME280;51875;49.994;14.052;2023-03-08T06:08:18;96718.28;;;4.66;88.09
65276;BME280;51875;49.994;14.052;2023-03-08T06:09:34;96710.47;;;4.41;88.75
65276;BME280;51875;49.994;14.052;2023-03-08T06:10:49;96711.81;;;4.52;88.30
65276;BME280;51875;49.994;14.052;2023-03-08T06:12:05;96714.56;;;4.48;87.52
65276;BME280;51875;49.994;14.052;2023-03-08T06:13:21;96711.38;;;4.66;88.51
65276;BME280;51875;49.994;14.052;2023-03-08T06:14:36;96711.41;;;4.65;87.70
65276;BME280;51875;49.994;14.052;2023-03-08T06:15:56;96711.47;;;4.63;88.07
65276;BME280;51875;49.994;14.052;2023-03-08T06:17:12;96714.81;;;4.67;87.57
65276;BME280;51875;49.994;14.052;2023-03-08T06:18:28;96715.16;;;4.56;88.29
65276;BME280;51875;49.994;14.052;2023-03-08T06:19:45;96715.66;;;4.68;86.74
65276;BME280;51875;49.994;14.052;2023-03-08T06:21:03;96708.97;;;4.60;87.00
65276;BME280;51875;49.994;14.052;2023-03-08T06:22:20;96708.97;;;4.60;87.58
65276;BME280;51875;49.994;14.052;2023-03-08T06:23:35;96711.88;;;4.78;85.40
65276;BME280;51875;49.994;14.052;2023-03-08T06:24:51;96720.34;;;4.83;86.80
65276;BME280;51875;49.994;14.052;2023-03-08T06:26:09;96704.53;;;4.91;86.08
65276;BME280;51875;49.994;14.052;2023-03-08T06:27:25;96707.66;;;4.74;86.62
65276;BME280;51875;49.994;14.052;2023-03-08T06:28:41;96710.44;;;4.96;85.39
65276;BME280;51875;49.994;14.052;2023-03-08T06:29:57;96707.28;;;4.86;84.40
65276;BME280;51875;49.994;14.052;2023-03-08T06:31:15;96709.16;;;4.83;84.80
65276;BME280;51875;49.994;14.052;2023-03-08T06:32:30;96709.53;;;4.97;84.53
65276;BME280;51875;49.994;14.052;2023-03-08T06:33:46;96712.16;;;4.95;84.79
65276;BME280;51875;49.994;14.052;2023-03-08T06:35:02;96707.50;;;5.05;84.11
65276;BME280;51875;49.994;14.052;2023-03-08T06:36:19;96711.03;;;5.03;84.37
65276;BME280;51875;49.994;14.052;2023-03-08T06:37:36;96707.72;;;4.99;83.40
65276;BME280;51875;49.994;14.052;2023-03-08T06:38:51;96709.81;;;5.15;82.78
65276;BME280;51875;49.994;14.052;2023-03-08T06:40:07;96708.78;;;4.93;84.68
65276;BME280;51875;49.994;14.052;2023-03-08T06:41:24;96705.81;;;5.04;84.40
65276;BME280;51875;49.994;14.052;2023-03-08T06:42:39;96714.09;;;5.16;83.71
65276;BME280;51875;49.994;14.052;2023-03-08T06:43:55;96720.84;;;4.94;83.84
65276;BME280;51875;49.994;14.052;2023-03-08T06:45:11;96711.78;;;5.06;83.31
65276;BME280;51875;49.994;14.052;2023-03-08T06:46:27;96719.56;;;5.06;83.13